sensor_id;sensor_type;location;lat;lon;timestamp;pressure;altitude;pressure_sealevel;temperature;humidity
39739;BME280;25422;48.286;8.484;2023-03-01T00:00:41;94561.75;;;-5.84;100.00
39739;BME280;25422;48.286;8.484;2023-03-01T00:03:06;94546.97;;;-5.76;100.00
39739;BME280;25422;48.286;8.484;2023-03-01T00:05:32;94545.44;;;-5.80;100.00
39739;BME280;25422;48.286;8.484;2023-03-01T00:07:58;94546.44;;;-5.84;100.00
39739;BME280;25422;48.286;8.484;2023-03-01T00:10:23;94545.81;;;-5.89;100.00
39739;BME280;25422;48.286;8.484;2023-03-01T00:12:48;94547.03;;;-5.98;100.00
39739;BME280;25422;48.286;8.484;2023-03-01T00:15:14;94547.03;;;-5.98;100.00
39739;BME280;25422;48.286;8.484;2023-03-01T00:17:39;94547.34;;;-6.05;100.00
39739;BME280;25422;48.286;8.484;2023-03-01T00:20:05;94551.41;;;-6.01;100.00
39739;BME280;25422;48.286;8.484;2023-03-01T00:22:36;94549.16;;;-6.09;100.00
39739;BME280;25422;48.286;8.484;2023-03-01T00:25:01;94537.34;;;-6.10;100.00
39739;BME280;25422;48.286;8.484;2023-03-01T00:27:27;94547.00;;;-6.18;100.00
39739;BME280;25422;48.286;8.484;2023-03-01T00:29:52;94531.66;;;-6.17;100.00
39739;BME280;25422;48.286;8.484;2023-03-01T00:32:17;94536.81;;;-6.18;100.00
39739;BME280;25422;48.286;8.484;2023-03-01T00:34:43;94537.78;;;-6.21;100.00
39739;BME280;25422;48.286;8.484;2023-03-01T00:37:22;94537.56;;;-6.16;100.00
39739;BME280;25422;48.286;8.484;2023-03-01T00:39:47;94541.06;;;-6.19;100.00
39739;BME280;25422;48.286;8.484;2023-03-01T00:42:15;94531.94;;;-6.24;100.00
39739;BME280;25422;48.286;8.484;2023-03-01T00:44:40;94531.19;;;-6.27;100.00
39739;BME280;25422;48.286;8.484;2023-03-01T00:47:05;94539.53;;;-6.23;100.00
39739;BME280;25422;48.286;8.484;2023-03-01T00:49:31;94536.91;;;-6.21;100.00
39739;BME280;25422;48.286;8.484;2023-03-01T00:51:56;94531.81;;;-6.21;100.00
39739;BME280;25422;48.286;8.484;2023-03-01T00:54:23;94532.03;;;-6.26;100.00
39739;BME280;25422;48.286;8.484;2023-03-01T00:56:48;94535.31;;;-6.24;100.00
39739;BME280;25422;48.286;8.484;2023-03-01T00:59:14;94531.66;;;-6.39;100.00
39739;BME280;25422;48.286;8.484;2023-03-01T01:01:39;94532.72;;;-6.45;100.00
39739;BME280;25422;48.286;8.484;2023-03-01T01:04:11;94524.38;;;-6.48;100.00
39739;BME280;25422;48.286;8.484;2023-03-01T01:06:42;94526.09;;;-6.49;100.00
39739;BME280;25422;48.286;8.484;2023-03-01T01:09:10;94525.16;;;-6.46;100.00
39739;BME280;25422;48.286;8.484;2023-03-01T01:11:46;94517.34;;;-6.41;100.00
39739;BME280;25422;48.286;8.484;2023-03-01T01:14:13;94509.94;;;-6.48;100.00
39739;BME280;25422;48.286;8.484;2023-03-01T01:16:39;94510.53;;;-6.41;100.00
39739;BME280;25422;48.286;8.484;2023-03-01T01:19:04;94511.81;;;-6.53;100.00
39739;BME280;25422;48.286;8.484;2023-03-01T01:21:30;94514.78;;;-6.64;100.00
39739;BME280;25422;48.286;8.484;2023-03-01T01:23:57;94499.44;;;-6.62;100.00
39739;BME280;25422;48.286;8.484;2023-03-01T01:26:25;94500.97;;;-6.58;100.00
39739;BME280;25422;48.286;8.484;2023-03-01T01:28:51;94497.41;;;-6.52;100.00
39739;BME280;25422;48.286;8.484;2023-03-01T01:31:18;94494.34;;;-6.62;100.00
39739;BME280;25422;48.286;8.484;2023-03-01T01:33:44;94499.44;;;-6.62;100.00
39739;BME280;25422;48.286;8.484;2023-03-01T01:36:11;94497.56;;;-6.57;100.00
39739;BME280;25422;48.286;8.484;2023-03-01T01:38:37;94487.31;;;-6.55;100.00
39739;BME280;25422;48.286;8.484;2023-03-01T01:41:03;94489.78;;;-6.54;100.00
39739;BME280;25422;48.286;8.484;2023-03-01T01:43:33;94486.50;;;-6.56;100.00
39739;BME280;25422;48.286;8.484;2023-03-01T01:46:29;94486.44;;;-6.54;100.00
39739;BME280;25422;48.286;8.484;2023-03-01T01:49:26;94482.16;;;-6.54;100.00
39739;BME280;25422;48.286;8.484;2023-03-01T01:52:04;94474.78;;;-6.60;100.00
39739;BME280;25422;48.286;8.484;2023-03-01T01:57:31;94478.47;;;-6.67;100.00
39739;BME280;25422;48.286;8.484;2023-03-01T02:00:00;94481.03;;;-6.69;100.00
39739;BME280;25422;48.286;8.484;2023-03-01T02:02:27;94485.09;;;-6.63;100.00
39739;BME280;25422;48.286;8.484;2023-03-01T02:05:01;94481.00;;;-6.67;100.00
39739;BME280;25422;48.286;8.484;2023-03-01T02:07:30;94476.72;;;-6.67;100.00
39739;BME280;25422;48.286;8.484;2023-03-01T02:09:55;94474.25;;;-6.68;100.00
39739;BME280;25422;48.286;8.484;2023-03-01T02:12:23;94470.16;;;-6.72;100.00
39739;BME280;25422;48.286;8.484;2023-03-01T02:14:49;94465.16;;;-6.75;100.00
39739;BME280;25422;48.286;8.484;2023-03-01T02:17:16;94465.34;;;-6.80;100.00
39739;BME280;25422;48.286;8.484;2023-03-01T02:22:46;94455.47;;;-6.88;100.00
39739;BME280;25422;48.286;8.484;2023-03-01T02:28:00;94448.75;;;-6.89;100.00
39739;BME280;25422;48.286;8.484;2023-03-01T02:30:29;94447.59;;;-6.82;100.00
39739;BME280;25422;48.286;8.484;2023-03-01T02:32:56;94446.19;;;-6.67;100.00
39739;BME280;25422;48.286;8.484;2023-03-01T02:35:38;94446.44;;;-6.51;100.00
39739;BME280;25422;48.286;8.484;2023-03-01T02:38:06;94440.72;;;-6.35;100.00
39739;BME280;25422;48.286;8.484;2023-03-01T02:40:34;94437.72;;;-6.24;100.00
39739;BME280;25422;48.286;8.484;2023-03-01T02:43:01;94439.03;;;-6.14;100.00
39739;BME280;25422;48.286;8.484;2023-03-01T02:45:29;94436.91;;;-6.04;100.00
39739;BME280;25422;48.286;8.484;2023-03-01T02:47:55;94432.16;;;-5.93;100.00
39739;BME280;25422;48.286;8.484;2023-03-01T02:50:44;94431.63;;;-5.81;100.00
39739;BME280;25422;48.286;8.484;2023-03-01T02:55:40;94428.06;;;-5.77;100.00
39739;BME280;25422;48.286;8.484;2023-03-01T02:58:07;94437.78;;;-5.64;100.00
39739;BME280;25422;48.286;8.484;2023-03-01T03:00:40;94434.06;;;-5.57;100.00
39739;BME280;25422;48.286;8.484;2023-03-01T03:03:14;94423.56;;;-5.51;100.00
39739;BME280;25422;48.286;8.484;2023-03-01T03:05:41;94426.50;;;-5.39;100.00
39739;BME280;25422;48.286;8.484;2023-03-01T03:08:06;94425.94;;;-5.27;100.00
39739;BME280;25422;48.286;8.484;2023-03-01T03:10:39;94424.09;;;-5.23;100.00
39739;BME280;25422;48.286;8.484;2023-03-01T03:13:08;94415.28;;;-5.16;100.00
39739;BME280;25422;48.286;8.484;2023-03-01T03:15:34;94407.47;;;-5.13;100.00
39739;BME280;25422;48.286;8.484;2023-03-01T03:18:03;94415.03;;;-5.12;100.00
39739;BME280;25422;48.286;8.484;2023-03-01T03:20:29;94412.72;;;-5.16;100.00
39739;BME280;25422;48.286;8.484;2023-03-01T03:22:56;94406.66;;;-5.14;100.00
39739;BME280;25422;48.286;8.484;2023-03-01T03:25:24;94410.09;;;-5.15;100.00
39739;BME280;25422;48.286;8.484;2023-03-01T03:27:52;94408.31;;;-5.13;100.00
39739;BME280;25422;48.286;8.484;2023-03-01T03:30:29;94408.84;;;-5.06;100.00
39739;BME280;25422;48.286;8.484;2023-03-01T03:32:56;94406.09;;;-5.01;100.00
39739;BME280;25422;48.286;8.484;2023-03-01T03:35:29;94394.16;;;-5.01;100.00
39739;BME280;25422;48.286;8.484;2023-03-01T03:37:56;94399.31;;;-5.02;100.00
39739;BME280;25422;48.286;8.484;2023-03-01T03:40:36;94404.16;;;-4.96;100.00
39739;BME280;25422;48.286;8.484;2023-03-01T03:43:17;94396.34;;;-4.93;100.00
39739;BME280;25422;48.286;8.484;2023-03-01T03:45:47;94393.72;;;-4.92;100.00
39739;BME280;25422;48.286;8.484;2023-03-01T03:48:13;94398.09;;;-4.94;100.00
39739;BME280;25422;48.286;8.484;2023-03-01T03:50:39;94409.25;;;-4.96;100.00
39739;BME280;25422;48.286;8.484;2023-03-01T03:53:08;94405.94;;;-4.98;100.00
39739;BME280;25422;48.286;8.484;2023-03-01T03:55:34;94396.63;;;-4.99;100.00
39739;BME280;25422;48.286;8.484;2023-03-01T03:58:02;94397.53;;;-5.00;100.00
39739;BME280;25422;48.286;8.484;2023-03-01T04:00:33;94392.38;;;-4.99;100.00
39739;BME280;25422;48.286;8.484;2023-03-01T04:02:59;94394.06;;;-4.99;100.00
39739;BME280;25422;48.286;8.484;2023-03-01T04:05:26;94383.28;;;-5.04;100.00
39739;BME280;25422;48.286;8.484;2023-03-01T04:07:52;94387.47;;;-5.03;100.00
39739;BME280;25422;48.286;8.484;2023-03-01T04:10:31;94385.53;;;-4.98;100.00
39739;BME280;25422;48.286;8.484;2023-03-01T04:12:57;94387.34;;;-5.00;100.00
39739;BME280;25422;48.286;8.484;2023-03-01T04:15:24;94392.28;;;-4.97;100.00
39739;BME280;25422;48.286;8.484;2023-03-01T04:17:51;94386.88;;;-4.91;100.00
39739;BME280;25422;48.286;8.484;2023-03-01T04:20:20;94389.75;;;-4.97;100.00
39739;BME280;25422;48.286;8.484;2023-03-01T04:23:07;94389.94;;;-5.02;100.00
39739;BME280;25422;48.286;8.484;2023-03-01T04:25:41;94388.16;;;-5.00;100.00
39739;BME280;25422;48.286;8.484;2023-03-01T04:28:07;94392.44;;;-5.00;100.00
39739;BME280;25422;48.286;8.484;2023-03-01T04:30:33;94382.91;;;-4.97;100.00
39739;BME280;25422;48.286;8.484;2023-03-01T04:33:08;94384.41;;;-4.93;100.00
39739;BME280;25422;48.286;8.484;2023-03-01T04:35:36;94387.81;;;-4.92;100.00
39739;BME280;25422;48.286;8.484;2023-03-01T04:38:02;94374.13;;;-4.91;100.00
39739;BME280;25422;48.286;8.484;2023-03-01T04:40:28;94382.63;;;-4.91;100.00
39739;BME280;25422;48.286;8.484;2023-03-01T04:42:53;94375.94;;;-4.93;100.00
39739;BME280;25422;48.286;8.484;2023-03-01T04:45:19;94381.28;;;-4.98;100.00
39739;BME280;25422;48.286;8.484;2023-03-01T04:47:46;94381.31;;;-4.99;100.00
39739;BME280;25422;48.286;8.484;2023-03-01T04:50:14;94376.75;;;-4.93;100.00
39739;BME280;25422;48.286;8.484;2023-03-01T04:52:39;94384.34;;;-4.91;100.00
39739;BME280;25422;48.286;8.484;2023-03-01T04:55:06;94376.69;;;-4.91;100.00
39739;BME280;25422;48.286;8.484;2023-03-01T04:57:32;94375.31;;;-4.98;100.00
39739;BME280;25422;48.286;8.484;2023-03-01T04:59:57;94365.97;;;-4.98;100.00
39739;BME280;25422;48.286;8.484;2023-03-01T05:02:23;94364.28;;;-4.99;100.00
39739;BME280;25422;48.286;8.484;2023-03-01T05:04:49;94363.19;;;-4.93;100.00
39739;BME280;25422;48.286;8.484;2023-03-01T05:07:14;94365.88;;;-4.96;100.00
39739;BME280;25422;48.286;8.484;2023-03-01T05:09:47;94359.03;;;-4.96;100.00
39739;BME280;25422;48.286;8.484;2023-03-01T05:12:13;94352.97;;;-4.93;100.00
39739;BME280;25422;48.286;8.484;2023-03-01T05:14:38;94361.38;;;-4.91;100.00
39739;BME280;25422;48.286;8.484;2023-03-01T05:17:04;94354.41;;;-4.87;100.00
39739;BME280;25422;48.286;8.484;2023-03-01T05:19:30;94356.94;;;-4.87;100.00
39739;BME280;25422;48.286;8.484;2023-03-01T05:21:56;94354.06;;;-4.80;100.00
39739;BME280;25422;48.286;8.484;2023-03-01T05:24:33;94358.38;;;-4.82;100.00
39739;BME280;25422;48.286;8.484;2023-03-01T05:26:59;94354.88;;;-4.79;100.00
39739;BME280;25422;48.286;8.484;2023-03-01T05:29:27;94350.59;;;-4.79;100.00
39739;BME280;25422;48.286;8.484;2023-03-01T05:31:55;94351.13;;;-4.72;100.00
39739;BME280;25422;48.286;8.484;2023-03-01T05:34:25;94349.25;;;-4.68;100.00
39739;BME280;25422;48.286;8.484;2023-03-01T05:36:52;94351.06;;;-4.70;100.00
39739;BME280;25422;48.286;8.484;2023-03-01T05:39:22;94357.94;;;-4.72;100.00
39739;BME280;25422;48.286;8.484;2023-03-01T05:41:52;94353.16;;;-4.79;100.00
39739;BME280;25422;48.286;8.484;2023-03-01T05:44:18;94347.28;;;-4.81;100.00
39739;BME280;25422;48.286;8.484;2023-03-01T05:46:44;94349.16;;;-4.67;100.00
39739;BME280;25422;48.286;8.484;2023-03-01T05:49:10;94350.81;;;-4.66;100.00
39739;BME280;25422;48.286;8.484;2023-03-01T05:51:36;94345.03;;;-4.69;100.00
39739;BME280;25422;48.286;8.484;2023-03-01T05:54:01;94346.03;;;-4.72;100.00
39739;BME280;25422;48.286;8.484;2023-03-01T05:56:27;94345.72;;;-4.66;100.00
39739;BME280;25422;48.286;8.484;2023-03-01T05:58:52;94348.06;;;-4.61;100.00
39739;BME280;25422;48.286;8.484;2023-03-01T06:01:18;94348.34;;;-4.67;100.00
39739;BME280;25422;48.286;8.484;2023-03-01T06:03:43;94344.75;;;-4.63;100.00
39739;BME280;25422;48.286;8.484;2023-03-01T06:06:08;94348.00;;;-4.60;100.00
39739;BME280;25422;48.286;8.484;2023-03-01T06:08:34;94354.72;;;-4.59;100.00
39739;BME280;25422;48.286;8.484;2023-03-01T06:10:59;94341.31;;;-4.62;100.00
39739;BME280;25422;48.286;8.484;2023-03-01T06:13:25;94344.59;;;-4.60;100.00
39739;BME280;25422;48.286;8.484;2023-03-01T06:15:50;94341.16;;;-4.59;100.00
39739;BME280;25422;48.286;8.484;2023-03-01T06:18:16;94339.38;;;-4.57;100.00
39739;BME280;25422;48.286;8.484;2023-03-01T06:20:42;94336.72;;;-4.55;100.00
39739;BME280;25422;48.286;8.484;2023-03-01T06:23:07;94339.81;;;-4.49;100.00
39739;BME280;25422;48.286;8.484;2023-03-01T06:25:33;94341.44;;;-4.48;100.00
39739;BME280;25422;48.286;8.484;2023-03-01T06:27:58;94344.44;;;-4.40;100.00
39739;BME280;25422;48.286;8.484;2023-03-01T06:30:25;94347.69;;;-4.36;100.00
39739;BME280;25422;48.286;8.484;2023-03-01T06:32:50;94347.00;;;-4.40;100.00
39739;BME280;25422;48.286;8.484;2023-03-01T06:35:17;94348.06;;;-4.44;100.00
39739;BME280;25422;48.286;8.484;2023-03-01T06:37:43;94350.69;;;-4.45;100.00
39739;BME280;25422;48.286;8.484;2023-03-01T06:40:10;94351.44;;;-4.43;100.00
39739;BME280;25422;48.286;8.484;2023-03-01T06:42:38;94348.22;;;-4.47;100.00
39739;BME280;25422;48.286;8.484;2023-03-01T06:45:04;94342.41;;;-4.50;100.00
39739;BME280;25422;48.286;8.484;2023-03-01T06:47:30;94340.78;;;-4.34;100.00
39739;BME280;25422;48.286;8.484;2023-03-01T06:49:56;94344.53;;;-4.41;100.00
39739;BME280;25422;48.286;8.484;2023-03-01T06:52:21;94344.31;;;-4.36;100.00
39739;BME280;25422;48.286;8.484;2023-03-01T06:54:46;94345.13;;;-4.36;100.00
39739;BME280;25422;48.286;8.484;2023-03-01T06:57:12;94332.63;;;-4.25;100.00
39739;BME280;25422;48.286;8.484;2023-03-01T06:59:37;94333.69;;;-4.29;100.00
39739;BME280;25422;48.286;8.484;2023-03-01T07:02:02;94322.22;;;-4.37;100.00
39739;BME280;25422;48.286;8.484;2023-03-01T07:04:28;94332.16;;;-4.31;100.00
39739;BME280;25422;48.286;8.484;2023-03-01T07:06:55;94329.28;;;-4.25;100.00
39739;BME280;25422;48.286;8.484;2023-03-01T07:09:22;94335.44;;;-4.29;100.00
39739;BME280;25422;48.286;8.484;2023-03-01T07:11:48;94330.84;;;-4.22;100.00
39739;BME280;25422;48.286;8.484;2023-03-01T07:14:14;94326.72;;;-4.25;100.00
39739;BME280;25422;48.286;8.484;2023-03-01T07:16:40;94334.16;;;-4.20;100.00
39739;BME280;25422;48.286;8.484;2023-03-01T07:19:05;94326.63;;;-4.24;100.00
39739;BME280;25422;48.286;8.484;2023-03-01T07:21:31;94330.75;;;-4.21;100.00
39739;BME280;25422;48.286;8.484;2023-03-01T07:23:57;94328.28;;;-4.22;100.00
39739;BME280;25422;48.286;8.484;2023-03-01T07:26:22;94328.81;;;-4.16;100.00
39739;BME280;25422;48.286;8.484;2023-03-01T07:28:48;94328.81;;;-4.16;100.00
39739;BME280;25422;48.286;8.484;2023-03-01T07:31:13;94321.88;;;-4.14;100.00
39739;BME280;25422;48.286;8.484;2023-03-01T07:33:39;94317.63;;;-4.13;100.00
39739;BME280;25422;48.286;8.484;2023-03-01T07:36:05;94319.09;;;-4.09;100.00
39739;BME280;25422;48.286;8.484;2023-03-01T07:38:31;94325.00;;;-3.91;100.00
39739;BME280;25422;48.286;8.484;2023-03-01T07:41:01;94307.44;;;-3.97;100.00
39739;BME280;25422;48.286;8.484;2023-03-01T07:43:28;94313.72;;;-3.87;100.00
39739;BME280;25422;48.286;8.484;2023-03-01T07:45:54;94317.84;;;-3.84;100.00
39739;BME280;25422;48.286;8.484;2023-03-01T07:48:20;94314.91;;;-3.77;100.00
39739;BME280;25422;48.286;8.484;2023-03-01T07:50:45;94312.66;;;-3.83;100.00
39739;BME280;25422;48.286;8.484;2023-03-01T07:53:11;94307.41;;;-3.80;100.00
39739;BME280;25422;48.286;8.484;2023-03-01T07:55:36;94301.22;;;-3.76;100.00
39739;BME280;25422;48.286;8.484;2023-03-01T07:58:02;94309.78;;;-3.77;100.00
39739;BME280;25422;48.286;8.484;2023-03-01T08:00:31;94302.53;;;-3.68;100.00
39739;BME280;25422;48.286;8.484;2023-03-01T08:02:59;94306.19;;;-3.57;100.00
39739;BME280;25422;48.286;8.484;2023-03-01T08:05:25;94296.78;;;-3.56;100.00
39739;BME280;25422;48.286;8.484;2023-03-01T08:07:50;94295.13;;;-3.57;100.00
39739;BME280;25422;48.286;8.484;2023-03-01T08:10:16;94295.53;;;-3.49;100.00
39739;BME280;25422;48.286;8.484;2023-03-01T08:12:41;94293.78;;;-3.32;100.00
39739;BME280;25422;48.286;8.484;2023-03-01T08:15:07;94290.50;;;-3.34;100.00
39739;BME280;25422;48.286;8.484;2023-03-01T08:17:33;94292.97;;;-3.17;100.00
39739;BME280;25422;48.286;8.484;2023-03-01T08:19:58;94291.78;;;-2.95;100.00
39739;BME280;25422;48.286;8.484;2023-03-01T08:22:24;94299.41;;;-3.10;100.00
39739;BME280;25422;48.286;8.484;2023-03-01T08:24:49;94293.59;;;-2.97;100.00
39739;BME280;25422;48.286;8.484;2023-03-01T08:27:16;94291.78;;;-2.95;100.00
39739;BME280;25422;48.286;8.484;2023-03-01T08:29:42;94291.81;;;-3.11;100.00
39739;BME280;25422;48.286;8.484;2023-03-01T08:32:07;94290.50;;;-3.18;100.00
39739;BME280;25422;48.286;8.484;2023-03-01T08:34:33;94295.16;;;-2.95;100.00
39739;BME280;25422;48.286;8.484;2023-03-01T08:37:01;94291.28;;;-2.86;100.00
39739;BME280;25422;48.286;8.484;2023-03-01T08:39:26;94294.56;;;-2.84;100.00
39739;BME280;25422;48.286;8.484;2023-03-01T08:41:52;94297.97;;;-2.83;100.00
39739;BME280;25422;48.286;8.484;2023-03-01T08:44:18;94287.38;;;-2.77;100.00
39739;BME280;25422;48.286;8.484;2023-03-01T08:46:44;94285.59;;;-2.91;100.00
39739;BME280;25422;48.286;8.484;2023-03-01T08:49:18;94280.53;;;-2.77;100.00
39739;BME280;25422;48.286;8.484;2023-03-01T08:51:45;94284.28;;;-2.68;100.00
39739;BME280;25422;48.286;8.484;2023-03-01T08:54:13;94285.69;;;-2.62;100.00
39739;BME280;25422;48.286;8.484;2023-03-01T08:56:40;94294.53;;;-2.68;100.00
39739;BME280;25422;48.286;8.484;2023-03-01T08:59:05;94284.88;;;-2.63;100.00
39739;BME280;25422;48.286;8.484;2023-03-01T09:01:31;94284.97;;;-2.64;100.00
39739;BME280;25422;48.286;8.484;2023-03-01T09:03:56;94269.13;;;-2.57;100.00
39739;BME280;25422;48.286;8.484;2023-03-01T09:06:22;94261.50;;;-2.28;100.00
39739;BME280;25422;48.286;8.484;2023-03-01T09:08:49;94260.47;;;-2.25;100.00
39739;BME280;25422;48.286;8.484;2023-03-01T09:11:20;94264.59;;;-2.23;100.00
39739;BME280;25422;48.286;8.484;2023-03-01T09:13:47;94267.25;;;-2.24;100.00
39739;BME280;25422;48.286;8.484;2023-03-01T09:16:15;94259.78;;;-2.13;100.00
39739;BME280;25422;48.286;8.484;2023-03-01T09:18:41;94265.06;;;-2.16;100.00
39739;BME280;25422;48.286;8.484;2023-03-01T09:21:12;94256.28;;;-1.97;100.00
39739;BME280;25422;48.286;8.484;2023-03-01T09:23:43;94256.59;;;-2.02;100.00
39739;BME280;25422;48.286;8.484;2023-03-01T09:26:11;94253.53;;;-1.94;100.00
39739;BME280;25422;48.286;8.484;2023-03-01T09:28:38;94265.81;;;-1.71;100.00
39739;BME280;25422;48.286;8.484;2023-03-01T09:31:04;94265.84;;;-1.43;100.00
39739;BME280;25422;48.286;8.484;2023-03-01T09:33:31;94261.38;;;-1.54;100.00
39739;BME280;25422;48.286;8.484;2023-03-01T09:36:01;94250.00;;;-1.36;100.00
39739;BME280;25422;48.286;8.484;2023-03-01T09:38:27;94250.38;;;-1.14;100.00
39739;BME280;25422;48.286;8.484;2023-03-01T09:40:53;94247.09;;;-1.16;100.00
39739;BME280;25422;48.286;8.484;2023-03-01T09:43:26;94254.50;;;-1.12;100.00
39739;BME280;25422;48.286;8.484;2023-03-01T09:45:54;94261.19;;;-1.09;100.00
39739;BME280;25422;48.286;8.484;2023-03-01T09:48:24;94254.44;;;-0.97;100.00
39739;BME280;25422;48.286;8.484;2023-03-01T09:50:53;94248.19;;;-0.93;100.00
39739;BME280;25422;48.286;8.484;2023-03-01T09:53:22;94257.16;;;-0.86;100.00
39739;BME280;25422;48.286;8.484;2023-03-01T10:01:29;94252.06;;;-0.73;100.00
39739;BME280;25422;48.286;8.484;2023-03-01T10:09:37;94244.06;;;-0.43;100.00
39739;BME280;25422;48.286;8.484;2023-03-01T10:12:08;94245.00;;;-0.44;100.00
39739;BME280;25422;48.286;8.484;2023-03-01T10:15:10;94239.47;;;-0.38;100.00
39739;BME280;25422;48.286;8.484;2023-03-01T10:17:32;94239.56;;;-0.39;100.00
39739;BME280;25422;48.286;8.484;2023-03-01T10:20:17;94237.06;;;-0.41;100.00
39739;BME280;25422;48.286;8.484;2023-03-01T10:22:44;94239.16;;;-0.46;100.00
39739;BME280;25422;48.286;8.484;2023-03-01T10:25:17;94232.88;;;-0.16;100.00
39739;BME280;25422;48.286;8.484;2023-03-01T10:27:55;94231.94;;;-0.28;100.00
39739;BME280;25422;48.286;8.484;2023-03-01T10:30:46;94238.94;;;-0.17;100.00
39739;BME280;25422;48.286;8.484;2023-03-01T10:33:18;94234.00;;;-0.07;100.00
39739;BME280;25422;48.286;8.484;2023-03-01T10:35:45;94240.78;;;0.07;100.00
39739;BME280;25422;48.286;8.484;2023-03-01T10:38:14;94236.28;;;-0.03;100.00
39739;BME280;25422;48.286;8.484;2023-03-01T10:43:20;94235.13;;;0.14;100.00
39739;BME280;25422;48.286;8.484;2023-03-01T10:45:45;94228.59;;;0.35;100.00
39739;BME280;25422;48.286;8.484;2023-03-01T10:48:20;94223.44;;;0.35;100.00
39739;BME280;25422;48.286;8.484;2023-03-01T10:50:51;94221.88;;;0.82;100.00
39739;BME280;25422;48.286;8.484;2023-03-01T10:53:33;94218.66;;;0.54;100.00
39739;BME280;25422;48.286;8.484;2023-03-01T10:56:07;94213.50;;;0.54;100.00
39739;BME280;25422;48.286;8.484;2023-03-01T10:58:36;94213.31;;;0.57;100.00
39739;BME280;25422;48.286;8.484;2023-03-01T11:01:24;94214.22;;;0.56;100.00
39739;BME280;25422;48.286;8.484;2023-03-01T11:04:11;94201.75;;;0.63;100.00
39739;BME280;25422;48.286;8.484;2023-03-01T11:06:38;94201.31;;;0.69;100.00
39739;BME280;25422;48.286;8.484;2023-03-01T11:09:19;94195.50;;;1.03;100.00
39739;BME280;25422;48.286;8.484;2023-03-01T11:11:46;94190.16;;;1.17;100.00
39739;BME280;25422;48.286;8.484;2023-03-01T11:14:25;94185.97;;;1.27;100.00
39739;BME280;25422;48.286;8.484;2023-03-01T11:17:04;94190.34;;;0.78;100.00
39739;BME280;25422;48.286;8.484;2023-03-01T11:19:30;94188.09;;;0.98;100.00
39739;BME280;25422;48.286;8.484;2023-03-01T11:24:46;94181.78;;;1.38;100.00
39739;BME280;25422;48.286;8.484;2023-03-01T11:27:19;94178.09;;;1.64;100.00
39739;BME280;25422;48.286;8.484;2023-03-01T11:30:05;94177.84;;;2.35;100.00
39739;BME280;25422;48.286;8.484;2023-03-01T11:35:37;94171.19;;;1.99;97.62
39739;BME280;25422;48.286;8.484;2023-03-01T11:38:16;94166.00;;;2.22;96.48
39739;BME280;25422;48.286;8.484;2023-03-01T11:41:12;94154.81;;;2.44;92.60
39739;BME280;25422;48.286;8.484;2023-03-01T11:43:56;94143.72;;;2.21;94.70
39739;BME280;25422;48.286;8.484;2023-03-01T11:52:21;94142.19;;;3.27;92.75
39739;BME280;25422;48.286;8.484;2023-03-01T12:06:28;94129.56;;;3.54;81.71
39739;BME280;25422;48.286;8.484;2023-03-01T12:09:27;94127.59;;;2.51;85.21
39739;BME280;25422;48.286;8.484;2023-03-01T12:12:28;94128.56;;;3.25;82.74
39739;BME280;25422;48.286;8.484;2023-03-01T12:23:31;94108.28;;;6.07;65.78
39739;BME280;25422;48.286;8.484;2023-03-01T12:31:35;94103.63;;;5.73;64.16
39739;BME280;25422;48.286;8.484;2023-03-01T12:34:14;94104.06;;;6.34;60.46
39739;BME280;25422;48.286;8.484;2023-03-01T12:39:29;94088.19;;;6.55;59.55
39739;BME280;25422;48.286;8.484;2023-03-01T12:45:02;94088.56;;;6.42;59.66
39739;BME280;25422;48.286;8.484;2023-03-01T12:48:18;94072.59;;;7.27;56.93
39739;BME280;25422;48.286;8.484;2023-03-01T12:50:52;94065.78;;;7.60;55.48
39739;BME280;25422;48.286;8.484;2023-03-01T12:53:25;94051.13;;;6.89;55.74
39739;BME280;25422;48.286;8.484;2023-03-01T12:55:58;94056.13;;;7.00;56.69
39739;BME280;25422;48.286;8.484;2023-03-01T12:58:35;94056.13;;;6.64;57.19
39739;BME280;25422;48.286;8.484;2023-03-01T13:01:29;94051.81;;;6.55;56.28
39739;BME280;25422;48.286;8.484;2023-03-01T13:09:40;94041.94;;;6.58;56.98
39739;BME280;25422;48.286;8.484;2023-03-01T13:20:52;94045.03;;;5.23;60.27
39739;BME280;25422;48.286;8.484;2023-03-01T13:26:04;94045.28;;;4.02;68.39
39739;BME280;25422;48.286;8.484;2023-03-01T13:33:50;94041.19;;;4.00;74.13
39739;BME280;25422;48.286;8.484;2023-03-01T13:44:36;94043.19;;;3.86;75.33
39739;BME280;25422;48.286;8.484;2023-03-01T13:47:15;94035.03;;;3.81;72.67
39739;BME280;25422;48.286;8.484;2023-03-01T13:49:58;94037.16;;;3.66;76.33
39739;BME280;25422;48.286;8.484;2023-03-01T13:52:42;94035.41;;;3.77;73.73
39739;BME280;25422;48.286;8.484;2023-03-01T13:57:42;94032.84;;;3.46;76.85
39739;BME280;25422;48.286;8.484;2023-03-01T14:00:37;94034.06;;;3.42;77.94
39739;BME280;25422;48.286;8.484;2023-03-01T14:05:31;94035.03;;;3.81;75.39
39739;BME280;25422;48.286;8.484;2023-03-01T14:07:57;94034.75;;;3.84;76.83
39739;BME280;25422;48.286;8.484;2023-03-01T14:10:26;94027.75;;;3.65;76.31
39739;BME280;25422;48.286;8.484;2023-03-01T14:15:50;94028.88;;;3.82;76.29
39739;BME280;25422;48.286;8.484;2023-03-01T14:18:25;94036.50;;;3.74;76.36
39739;BME280;25422;48.286;8.484;2023-03-01T14:20:54;94032.56;;;3.80;76.97
39739;BME280;25422;48.286;8.484;2023-03-01T14:23:21;94039.66;;;3.87;77.13
39739;BME280;25422;48.286;8.484;2023-03-01T14:25:53;94032.47;;;3.91;76.89
39739;BME280;25422;48.286;8.484;2023-03-01T14:28:26;94042.28;;;3.97;75.92
39739;BME280;25422;48.286;8.484;2023-03-01T14:30:54;94042.66;;;3.73;74.16
39739;BME280;25422;48.286;8.484;2023-03-01T14:41:10;94035.19;;;3.90;76.37
39739;BME280;25422;48.286;8.484;2023-03-01T14:43:42;94037.03;;;3.68;74.80
39739;BME280;25422;48.286;8.484;2023-03-01T14:46:24;94021.94;;;3.73;75.10
39739;BME280;25422;48.286;8.484;2023-03-01T14:48:54;94035.13;;;3.70;77.53
39739;BME280;25422;48.286;8.484;2023-03-01T14:51:21;94036.50;;;3.74;75.48
39739;BME280;25422;48.286;8.484;2023-03-01T14:53:46;94032.16;;;3.75;75.76
39739;BME280;25422;48.286;8.484;2023-03-01T14:56:14;94039.19;;;3.63;76.24
39739;BME280;25422;48.286;8.484;2023-03-01T14:58:40;94041.78;;;3.63;75.92